Portada
METAR-TAF:

METAR-TAF

Aeropuertos :

Shearwater, Nueva Escocia, Canadá

latitud: 44-38N, longitud: 063-30W, altitud: 51 m

METAR: falta

Hora: 22:10 (01:10 UTC)

Pronóstico

El informe se hizo hace 7 horas y 40 minutos, a las 17:30 UTC
Pronóstico válido del 20 a las 18 UTC al 21 a las 06 UTC
Viento 3 kt con dirección variable
Visibilidad: 10 km
Escasas nubes a una altura de 4000 ft
Cielo nuboso a una altura de 25000 ft
A partir de las 20 a las 2100 UTC
Viento 5 kt del sur
Visibilidad: 10 km
Nubes dispersas a una altura de 24000 ft
A partir de las 21 a las 0300 UTC
Viento 10 kt del este-sureste
Visibilidad: 10 km
Nubes dispersas a una altura de 1200 ft
Temporalmente
del 21 a las 03 UTC al 21 a las 06 UTC
Visibilidad: 0.8 km
a una altura de 200 ft
niebla

TAF: CYAW 201730Z 2018/2106 VRB03KT P6SM FEW040 BKN250 FM202100 18005KT P6SM SCT240 FM210300 12010KT P6SM SCT012 TEMPO 2103/2106 1/2SM FG VV002 RMK NXT FCST BY 210000Z

Observaciones y pronósticos meteorológicos de más de 4000 aeropuertos (mensajes METAR y TAF).

Los puntos amarillos y rojos representan las estaciones disponibles.

Ponga el ratón en el punto deseado para ver el nombre de la estación.

Haga clic para ver las observaciones y los pronósticos meteorológicos.

Para cambiar el mapa : haga clic en los botones verdes con una cruz de color negro para hacer un zoom, en el botón verde con un guión para alejar o en las flechas verdes para mapas adyacentes.


METAR-TAF: